Agraha Dasarahalli, India

11:33 PM IST on July 21, 2017 (GMT +0530)
Pride Orchid | | Change Station

Elev 2890 ft 12.95 °N, 77.72 °E | Updated 3 minutes ago

Partly Cloudy
Partly Cloudy
73.2 °F
Feels Like 72 °F
N
4.0
Wind Variable Wind from WSW
Gusts 8.0 mph

Today
High -- | Low -- °F
--% Chance of Precip.
Yesterday
High -- | Low -- °F
Precip. -- in
Pressure 29.95 in
Visibility 3.7 miles
Clouds Scattered Clouds 1200 ft
Scattered Clouds 8000 ft
Heat Index 72 °F
Dew Point 69 °F
Humidity 87%
Rainfall 0.00 in
Snow Depth Not available.
6:02 AM 6:49 PM
Waning Crescent, 4% visible
METAR VOBL 211730Z 26012KT 6000 SCT012 SCT080 23/22 Q1014 NOSIG
Pressure 29.95 in
Visibility 3.7 miles
Clouds Scattered Clouds 1200 ft
Scattered Clouds 8000 ft
Heat Index 72 °F
Dew Point 69 °F
Humidity 87%
Rainfall 0.00 in
Snow Depth Not available.
6:02 AM 6:49 PM
Waning Crescent, 4% visible
METAR VOBL 211730Z 26012KT 6000 SCT012 SCT080 23/22 Q1014 NOSIG

Get Severe Weather Alerts

Thanks for signing up!

Be on the lookout for a verification email in your inbox.

You'll start receiving the daily forecast at 6 AM.

×

10-Day Weather Forecast

No radar image for this location.
×

Almanac

Astronomy

Jul. 21, 2017 Rise Set
Actual Time
Civil Twilight
Nautical Twilight
Astronomical Twilight
Moon
Length of Visible Light
Length of Day
Tomorrow will be .
, % of the Moon is Illuminated

Today's Extremes

Country Highs Country Lows

Community

WunderPhotos

Category 6

Welcome to Category 6. This is the collective home for Weather Underground's featured writeups by Dr. Jeff Masters (right), Bob Henson (left), Chris Burt, and other regular contributors.

Nearby

Air Quality

  Air Quality AQ Index Pollutant
Not available.

Snow Depth

Station Depth Elevation

Earthquake Activity

City Distance Mag. Time & Date
Minimum magnitude displayed is 2.5.

Coastal Water Temperatures

Place Temperature

Stations

Nearby Weather Stations

Station Location Temp. Windchill Dew Point Humidity Wind Precip. Elev Updated Type